createdAt,value
2022-11-26T00:02:23.762Z,7.37
2022-11-26T00:04:53.635Z,7.26
2022-11-26T00:07:26.173Z,7.22
2022-11-26T00:09:57.691Z,7.09
2022-11-26T00:12:28.655Z,7.18
2022-11-26T00:14:57.614Z,7.17
2022-11-26T00:17:26.495Z,7.22
2022-11-26T00:19:54.688Z,7.08
2022-11-26T00:22:26.294Z,7.02
2022-11-26T00:24:56.960Z,7.00
2022-11-26T00:27:27.629Z,7.00
2022-11-26T00:29:56.098Z,7.01
2022-11-26T00:32:26.646Z,7.02
2022-11-26T00:34:55.490Z,6.90
2022-11-26T00:37:27.359Z,6.97
2022-11-26T00:39:59.374Z,6.89
2022-11-26T00:42:28.797Z,6.96
2022-11-26T00:44:58.987Z,6.99
2022-11-26T00:47:27.488Z,6.95
2022-11-26T00:49:55.881Z,6.88
2022-11-26T00:52:29.967Z,7.02
2022-11-26T00:55:00.086Z,7.02
2022-11-26T00:57:28.521Z,6.95
2022-11-26T00:59:57.740Z,6.96
2022-11-26T01:02:26.158Z,7.02
2022-11-26T01:04:54.483Z,6.96
2022-11-26T01:07:22.922Z,7.05
2022-11-26T01:09:51.047Z,7.00
2022-11-26T01:12:23.253Z,6.90
2022-11-26T01:14:51.827Z,6.89
2022-11-26T01:17:20.108Z,6.82
2022-11-26T01:19:48.276Z,6.91
2022-11-26T01:22:21.942Z,6.83
2022-11-26T01:24:50.536Z,6.83
2022-11-26T01:27:22.280Z,6.88
2022-11-26T01:29:50.460Z,6.78
2022-11-26T01:32:18.940Z,6.68
2022-11-26T01:34:47.563Z,6.62
2022-11-26T01:37:16.026Z,6.59
2022-11-26T01:39:44.084Z,6.54
2022-11-26T01:42:27.519Z,6.50
2022-11-26T01:44:56.078Z,6.50
2022-11-26T01:47:26.522Z,6.39
2022-11-26T01:50:40.892Z,6.42
2022-11-26T01:53:14.620Z,6.23
2022-11-26T01:55:48.250Z,6.16
2022-11-26T01:58:22.713Z,6.20
2022-11-26T02:00:52.762Z,6.12
2022-11-26T02:03:22.597Z,6.09
2022-11-26T02:06:00.271Z,6.07
2022-11-26T02:08:31.616Z,6.02
2022-11-26T02:11:00.543Z,6.01
2022-11-26T02:13:30.511Z,5.96
2022-11-26T02:16:05.168Z,5.80
2022-11-26T02:18:43.112Z,5.90
2022-11-26T02:21:21.715Z,5.87
2022-11-26T02:24:23.362Z,5.84
2022-11-26T02:27:27.876Z,5.86
2022-11-26T02:30:13.352Z,5.75
2022-11-26T02:33:00.440Z,5.71
2022-11-26T02:35:35.839Z,5.70
2022-11-26T02:38:08.088Z,5.61
2022-11-26T02:40:36.442Z,5.55
2022-11-26T02:43:06.395Z,5.54
2022-11-26T02:45:41.372Z,5.55
2022-11-26T02:48:16.034Z,5.50
2022-11-26T02:50:48.737Z,5.48
2022-11-26T02:53:21.474Z,5.52
2022-11-26T02:55:55.588Z,5.48
2022-11-26T02:58:23.740Z,5.61
2022-11-26T03:00:56.274Z,5.63
2022-11-26T03:03:28.632Z,5.61
2022-11-26T03:06:00.963Z,5.56
2022-11-26T03:08:30.624Z,5.43
2022-11-26T03:10:58.898Z,5.34
2022-11-26T03:13:28.667Z,5.09
2022-11-26T03:15:59.088Z,4.99
2022-11-26T03:18:29.404Z,4.86
2022-11-26T03:20:58.003Z,4.82
2022-11-26T03:23:26.958Z,4.70
2022-11-26T03:25:55.370Z,4.62
2022-11-26T03:28:23.892Z,4.72
2022-11-26T03:30:53.178Z,4.85
2022-11-26T03:33:23.240Z,4.90
2022-11-26T03:35:53.864Z,4.91
2022-11-26T03:38:23.030Z,4.89
2022-11-26T03:40:59.775Z,4.68
2022-11-26T03:43:28.492Z,4.44
2022-11-26T03:45:56.823Z,4.56
2022-11-26T03:48:27.755Z,4.59
2022-11-26T03:50:56.191Z,4.47
2022-11-26T03:53:27.264Z,4.57
2022-11-26T03:55:56.297Z,4.43
2022-11-26T03:58:26.079Z,4.58
2022-11-26T04:00:55.035Z,4.52
2022-11-26T04:03:23.553Z,4.29
2022-11-26T04:05:53.552Z,4.49
2022-11-26T04:08:22.277Z,4.43
2022-11-26T04:10:52.858Z,4.35
2022-11-26T04:13:24.453Z,4.36
2022-11-26T04:15:53.689Z,4.16
2022-11-26T04:18:21.900Z,4.22
2022-11-26T04:20:53.005Z,4.19
2022-11-26T04:23:23.083Z,4.14
2022-11-26T04:25:51.215Z,4.06
2022-11-26T04:28:22.151Z,3.99
2022-11-26T04:30:50.367Z,4.03
2022-11-26T04:33:19.146Z,4.07
2022-11-26T04:35:47.997Z,4.08
2022-11-26T04:38:17.871Z,4.11
2022-11-26T04:40:50.364Z,4.07
2022-11-26T04:43:18.572Z,4.09
2022-11-26T04:45:47.132Z,4.13
2022-11-26T04:48:15.844Z,4.03
2022-11-26T04:50:44.574Z,4.05
2022-11-26T04:53:12.812Z,4.07
2022-11-26T04:55:42.267Z,3.76
2022-11-26T04:58:12.007Z,3.56
2022-11-26T05:00:40.234Z,3.69
2022-11-26T05:03:08.518Z,3.66
2022-11-26T05:05:36.626Z,3.61
2022-11-26T05:08:05.384Z,3.68
2022-11-26T05:10:33.992Z,3.62
2022-11-26T05:13:02.560Z,3.66
2022-11-26T05:15:32.507Z,3.69
2022-11-26T05:18:03.771Z,3.71
2022-11-26T05:20:32.520Z,3.72
2022-11-26T05:23:01.234Z,3.65
2022-11-26T05:25:29.413Z,3.54
2022-11-26T05:27:58.320Z,3.58
2022-11-26T05:30:26.501Z,3.67
2022-11-26T05:32:56.307Z,3.82
2022-11-26T05:35:25.366Z,3.77
2022-11-26T05:37:54.359Z,3.58
2022-11-26T05:40:23.474Z,3.47
2022-11-26T05:42:51.808Z,3.40
2022-11-26T05:45:20.422Z,3.45
2022-11-26T05:47:48.432Z,3.57
2022-11-26T05:50:18.700Z,3.69
2022-11-26T05:52:47.472Z,3.73
2022-11-26T05:55:16.633Z,3.83
2022-11-26T05:57:44.993Z,3.83
2022-11-26T06:00:14.999Z,3.79
2022-11-26T06:02:43.608Z,3.77
2022-11-26T06:05:13.130Z,3.72
2022-11-26T06:07:45.065Z,3.71
2022-11-26T06:10:14.405Z,3.74
2022-11-26T06:12:42.783Z,3.66
2022-11-26T06:15:12.395Z,3.70
2022-11-26T06:17:40.485Z,3.66
2022-11-26T06:20:10.069Z,3.65
2022-11-26T06:22:44.208Z,3.72
2022-11-26T06:25:15.372Z,3.71
2022-11-26T06:27:44.133Z,3.67
2022-11-26T06:30:13.682Z,3.87
2022-11-26T06:32:42.239Z,3.78
2022-11-26T06:35:11.834Z,3.97
2022-11-26T06:37:40.291Z,4.05
2022-11-26T06:40:22.351Z,4.00
2022-11-26T06:42:51.263Z,3.96
2022-11-26T06:45:20.389Z,4.05
2022-11-26T06:47:51.818Z,4.10
2022-11-26T06:50:22.848Z,4.08
2022-11-26T06:52:53.227Z,4.06
2022-11-26T06:55:23.377Z,4.05
2022-11-26T06:57:52.571Z,4.13
2022-11-26T07:00:22.891Z,4.05
2022-11-26T07:02:51.573Z,4.13
2022-11-26T07:05:20.708Z,4.14
2022-11-26T07:07:49.245Z,4.24
2022-11-26T07:10:18.020Z,4.26
2022-11-26T07:12:48.515Z,4.31
2022-11-26T07:15:17.180Z,4.38
2022-11-26T07:17:45.770Z,4.05
2022-11-26T07:20:16.379Z,4.25
2022-11-26T07:22:48.366Z,4.31
2022-11-26T07:25:17.662Z,4.18
2022-11-26T07:27:50.667Z,4.24
2022-11-26T07:30:19.690Z,4.29
2022-11-26T07:32:48.658Z,4.01
2022-11-26T07:35:18.581Z,4.14
2022-11-26T07:37:46.764Z,4.17
2022-11-26T07:40:17.300Z,4.09
2022-11-26T07:42:52.953Z,4.22
2022-11-26T07:45:21.804Z,4.23
2022-11-26T07:47:50.285Z,4.30
2022-11-26T07:50:20.955Z,4.10
2022-11-26T07:52:49.606Z,4.20
2022-11-26T07:55:18.286Z,4.26
2022-11-26T07:57:48.234Z,4.26
2022-11-26T08:00:18.260Z,4.33
2022-11-26T08:02:46.434Z,4.27
2022-11-26T08:05:14.625Z,4.40
2022-11-26T08:07:43.060Z,4.31
2022-11-26T08:10:12.674Z,4.40
2022-11-26T08:12:41.439Z,4.41
2022-11-26T08:15:12.737Z,4.43
2022-11-26T08:17:42.727Z,4.46
2022-11-26T08:20:12.235Z,4.62
2022-11-26T08:22:40.600Z,4.60
2022-11-26T08:25:10.718Z,4.76
2022-11-26T08:27:39.307Z,4.57
2022-11-26T08:30:11.586Z,4.67
2022-11-26T08:32:41.477Z,4.79
2022-11-26T08:35:10.537Z,4.84
2022-11-26T08:37:39.191Z,4.78
2022-11-26T08:40:09.546Z,4.98
2022-11-26T08:42:37.959Z,4.98
2022-11-26T08:45:07.269Z,5.08
2022-11-26T08:47:35.851Z,5.12
2022-11-26T08:50:07.851Z,4.85
2022-11-26T08:52:36.333Z,4.85
2022-11-26T08:55:04.920Z,4.91
2022-11-26T08:57:35.238Z,5.08
2022-11-26T09:00:03.718Z,4.98
2022-11-26T09:02:32.563Z,5.02
2022-11-26T09:05:01.045Z,5.10
2022-11-26T09:07:32.083Z,4.85
2022-11-26T09:10:00.586Z,5.02
2022-11-26T09:12:29.219Z,5.08
2022-11-26T09:14:57.472Z,4.83
2022-11-26T09:17:25.924Z,5.00
2022-11-26T09:19:54.410Z,5.21
2022-11-26T09:22:22.801Z,5.32
2022-11-26T09:24:53.110Z,5.37
2022-11-26T09:27:21.376Z,4.96
2022-11-26T09:29:49.503Z,5.13
2022-11-26T09:32:29.699Z,5.08
2022-11-26T09:35:01.966Z,5.31
2022-11-26T09:37:30.580Z,5.34
2022-11-26T09:40:00.418Z,5.33
2022-11-26T09:42:43.149Z,5.62
2022-11-26T09:45:20.220Z,5.43
2022-11-26T09:47:53.781Z,5.55
2022-11-26T09:50:28.862Z,5.79
2022-11-26T09:53:01.810Z,5.73
2022-11-26T09:55:33.713Z,5.79
2022-11-26T09:58:11.713Z,5.82
2022-11-26T10:00:42.093Z,6.01
2022-11-26T10:03:18.831Z,6.12
2022-11-26T10:05:57.144Z,6.18
2022-11-26T10:08:57.915Z,6.41
2022-11-26T10:11:37.951Z,6.77
2022-11-26T10:14:18.945Z,7.01
2022-11-26T10:16:56.723Z,7.15
2022-11-26T10:19:37.099Z,6.97
2022-11-26T10:22:07.501Z,6.78
2022-11-26T10:24:42.095Z,6.82
2022-11-26T10:27:17.206Z,6.92
2022-11-26T10:29:50.223Z,6.99
2022-11-26T10:32:26.668Z,6.95
2022-11-26T10:34:58.150Z,7.00
2022-11-26T10:37:28.885Z,7.14
2022-11-26T10:40:07.822Z,7.16
2022-11-26T10:42:44.868Z,7.29
2022-11-26T10:45:20.198Z,7.31
2022-11-26T10:47:48.739Z,7.40
2022-11-26T10:50:46.599Z,7.33
2022-11-26T10:53:22.160Z,7.52
2022-11-26T10:55:52.399Z,7.55
2022-11-26T10:58:25.860Z,7.50
2022-11-26T11:01:00.930Z,7.35
2022-11-26T11:04:06.075Z,7.43
2022-11-26T11:06:36.278Z,7.36
2022-11-26T11:09:24.122Z,7.16
2022-11-26T11:12:16.415Z,7.31
2022-11-26T11:14:47.564Z,7.45
2022-11-26T11:17:31.561Z,7.42
2022-11-26T11:20:02.959Z,7.15
2022-11-26T11:22:31.173Z,7.27
2022-11-26T11:25:01.995Z,7.43
2022-11-26T11:27:41.202Z,7.25
2022-11-26T11:30:25.914Z,7.37
2022-11-26T11:32:57.761Z,7.70
2022-11-26T11:35:27.663Z,7.53
2022-11-26T11:37:59.715Z,7.73
2022-11-26T11:40:30.728Z,7.65
2022-11-26T11:43:03.245Z,7.71
2022-11-26T11:45:36.081Z,7.52
2022-11-26T11:48:18.007Z,7.61
2022-11-26T11:50:53.962Z,7.17
2022-11-26T11:53:34.745Z,7.31
2022-11-26T11:56:22.092Z,6.95
2022-11-26T11:59:18.294Z,6.96
2022-11-26T12:02:07.195Z,6.77
2022-11-26T12:05:05.123Z,6.74
2022-11-26T12:07:40.181Z,6.53
2022-11-26T12:10:15.374Z,6.32
2022-11-26T12:12:48.598Z,6.57
2022-11-26T12:15:26.571Z,6.68
2022-11-26T12:18:01.052Z,6.49
2022-11-26T12:20:35.426Z,6.16
2022-11-26T12:23:22.630Z,6.29
2022-11-26T12:25:55.619Z,6.30
2022-11-26T12:28:28.335Z,6.40
2022-11-26T12:31:03.460Z,6.63
2022-11-26T12:33:37.711Z,6.58
2022-11-26T12:36:15.887Z,6.44
2022-11-26T12:38:49.916Z,6.60
2022-11-26T12:41:24.180Z,6.35
2022-11-26T12:43:59.911Z,6.16
2022-11-26T12:46:38.523Z,6.12
2022-11-26T12:49:19.268Z,6.36
2022-11-26T12:51:53.659Z,6.31
2022-11-26T12:54:29.706Z,6.45
2022-11-26T12:57:03.973Z,6.38
2022-11-26T12:59:37.843Z,6.59
2022-11-26T13:02:20.759Z,6.04
2022-11-26T13:04:51.348Z,5.98
2022-11-26T13:07:31.874Z,6.28
2022-11-26T13:10:12.174Z,6.37
2022-11-26T13:12:48.710Z,6.42
2022-11-26T13:15:22.948Z,6.31
2022-11-26T13:17:53.792Z,6.45
2022-11-26T13:20:52.073Z,6.66
2022-11-26T13:23:35.405Z,6.73
2022-11-26T13:26:21.747Z,6.52
2022-11-26T13:29:24.110Z,6.68
2022-11-26T13:32:13.117Z,6.56
2022-11-26T13:35:02.682Z,6.77
2022-11-26T13:37:55.089Z,6.54
2022-11-26T13:40:58.693Z,6.51
2022-11-26T13:44:07.054Z,6.51
2022-11-26T13:46:39.469Z,6.56
2022-11-26T13:49:13.138Z,6.27
2022-11-26T13:51:48.130Z,6.33
2022-11-26T13:54:24.707Z,6.31
2022-11-26T13:57:01.610Z,6.15
2022-11-26T13:59:33.783Z,6.37
2022-11-26T14:02:44.670Z,6.44
2022-11-26T14:05:15.279Z,6.43
2022-11-26T14:07:45.991Z,6.48
2022-11-26T14:10:44.087Z,6.49
2022-11-26T14:13:14.158Z,6.41
2022-11-26T14:15:57.294Z,6.37
2022-11-26T14:19:00.752Z,6.37
2022-11-26T14:21:31.473Z,6.39
2022-11-26T14:24:02.252Z,6.23
2022-11-26T14:26:34.830Z,6.26
2022-11-26T14:29:13.290Z,6.08
2022-11-26T14:31:44.304Z,6.02
2022-11-26T14:34:18.989Z,6.14
2022-11-26T14:36:57.478Z,6.25
2022-11-26T14:39:26.429Z,6.12
2022-11-26T14:42:05.179Z,6.16
2022-11-26T14:44:34.712Z,6.16
2022-11-26T14:47:12.053Z,6.08
2022-11-26T14:49:43.157Z,6.01
2022-11-26T14:52:21.024Z,6.10
2022-11-26T14:54:52.937Z,6.01
2022-11-26T14:57:26.695Z,6.25
2022-11-26T15:00:00.345Z,6.19
2022-11-26T15:02:31.128Z,6.11
2022-11-26T15:05:01.929Z,6.16
2022-11-26T15:07:31.556Z,6.13
2022-11-26T15:10:05.543Z,6.05
2022-11-26T15:12:37.988Z,6.15
2022-11-26T15:15:07.596Z,6.20
2022-11-26T15:17:44.650Z,6.14
2022-11-26T15:20:17.385Z,6.06
2022-11-26T15:22:51.623Z,6.14
2022-11-26T15:25:22.318Z,6.20
2022-11-26T15:27:54.938Z,6.28
2022-11-26T15:30:25.023Z,6.34
2022-11-26T15:33:02.607Z,6.29
2022-11-26T15:35:33.418Z,6.01
2022-11-26T15:38:02.128Z,5.86
2022-11-26T15:40:34.071Z,6.02
2022-11-26T15:43:06.360Z,5.98
2022-11-26T15:45:39.852Z,6.13
2022-11-26T15:48:50.568Z,6.05
2022-11-26T15:51:13.421Z,5.82
2022-11-26T15:53:48.294Z,5.84
2022-11-26T15:56:19.656Z,5.83
2022-11-26T15:58:56.794Z,6.01
2022-11-26T16:01:28.350Z,5.83
2022-11-26T16:03:59.816Z,5.78
2022-11-26T16:06:34.022Z,5.90
2022-11-26T16:09:27.893Z,5.89
2022-11-26T16:12:01.266Z,6.08
2022-11-26T16:14:36.518Z,5.84
2022-11-26T16:17:08.762Z,5.91
2022-11-26T16:19:38.530Z,6.01
2022-11-26T16:22:10.432Z,6.03
2022-11-26T16:24:43.191Z,6.09
2022-11-26T16:27:27.766Z,6.07
2022-11-26T16:29:58.415Z,5.98
2022-11-26T16:32:27.211Z,6.16
2022-11-26T16:34:55.890Z,6.14
2022-11-26T16:37:26.347Z,6.19
2022-11-26T16:40:13.179Z,6.21
2022-11-26T16:42:41.814Z,6.37
2022-11-26T16:45:13.214Z,6.18
2022-11-26T16:47:45.096Z,6.08
2022-11-26T16:50:19.119Z,6.26
2022-11-26T16:52:47.662Z,6.21
2022-11-26T16:55:18.477Z,6.30
2022-11-26T16:57:51.139Z,6.34
2022-11-26T17:00:24.254Z,6.32
2022-11-26T17:02:53.054Z,6.31
2022-11-26T17:05:22.719Z,6.20
2022-11-26T17:07:55.204Z,6.23
2022-11-26T17:10:26.473Z,6.24
2022-11-26T17:12:54.541Z,6.13
2022-11-26T17:15:24.767Z,6.20
2022-11-26T17:17:56.351Z,6.12
2022-11-26T17:20:26.210Z,6.17
2022-11-26T17:22:56.249Z,6.08
2022-11-26T17:25:24.851Z,6.20
2022-11-26T17:27:52.890Z,6.21
2022-11-26T17:30:22.683Z,6.22
2022-11-26T17:32:52.849Z,6.10
2022-11-26T17:35:21.011Z,6.14
2022-11-26T17:37:50.911Z,6.15
2022-11-26T17:40:21.119Z,6.20
2022-11-26T17:42:50.258Z,6.10
2022-11-26T17:45:21.476Z,6.16
2022-11-26T17:47:51.607Z,6.21
2022-11-26T17:50:23.855Z,6.24
2022-11-26T17:52:53.278Z,6.19
2022-11-26T17:55:23.933Z,6.18
2022-11-26T17:57:52.630Z,6.14
2022-11-26T18:00:25.425Z,6.07
2022-11-26T18:02:56.430Z,6.09
2022-11-26T18:05:26.253Z,6.17
2022-11-26T18:07:54.927Z,6.08
2022-11-26T18:10:24.950Z,6.00
2022-11-26T18:12:56.530Z,6.03
2022-11-26T18:15:26.679Z,6.05
2022-11-26T18:17:57.332Z,6.07
2022-11-26T18:20:30.226Z,6.10
2022-11-26T18:23:01.902Z,6.06
2022-11-26T18:25:36.478Z,6.11
2022-11-26T18:28:06.796Z,6.12
2022-11-26T18:30:38.099Z,6.02
2022-11-26T18:33:07.868Z,5.98
2022-11-26T18:35:36.359Z,6.00
2022-11-26T18:38:07.807Z,6.11
2022-11-26T18:40:35.944Z,6.14
2022-11-26T18:43:04.328Z,6.11
2022-11-26T18:45:33.182Z,6.10
2022-11-26T18:48:03.359Z,6.09
2022-11-26T18:50:32.914Z,6.05
2022-11-26T18:53:01.392Z,6.02
2022-11-26T18:55:30.289Z,6.07
2022-11-26T18:57:58.723Z,6.15
2022-11-26T19:00:27.239Z,6.10
2022-11-26T19:02:55.571Z,6.13
2022-11-26T19:05:24.073Z,6.13
2022-11-26T19:07:53.920Z,6.03
2022-11-26T19:10:22.564Z,6.02
2022-11-26T19:12:50.989Z,6.01
2022-11-26T19:15:19.616Z,6.07
2022-11-26T19:17:47.846Z,6.10
2022-11-26T19:20:16.555Z,6.24
2022-11-26T19:22:45.508Z,6.14
2022-11-26T19:25:16.049Z,6.25
2022-11-26T19:27:45.103Z,6.02
2022-11-26T19:30:17.956Z,6.11
2022-11-26T19:32:46.171Z,6.08
2022-11-26T19:35:14.748Z,6.05
2022-11-26T19:37:43.210Z,6.05
2022-11-26T19:40:12.396Z,6.06
2022-11-26T19:42:42.166Z,6.22
2022-11-26T19:45:11.763Z,6.17
2022-11-26T19:47:40.353Z,6.14
2022-11-26T19:50:10.438Z,6.19
2022-11-26T19:52:38.936Z,5.85
2022-11-26T19:55:08.287Z,5.91
2022-11-26T19:57:36.768Z,6.01
2022-11-26T20:00:09.693Z,6.15
2022-11-26T20:02:38.664Z,6.14
2022-11-26T20:05:07.393Z,6.16
2022-11-26T20:07:36.505Z,6.18
2022-11-26T20:10:05.282Z,6.28
2022-11-26T20:12:33.803Z,6.12
2022-11-26T20:15:02.097Z,6.14
2022-11-26T20:17:34.262Z,6.16
2022-11-26T20:20:03.197Z,6.10
2022-11-26T20:22:34.509Z,6.15
2022-11-26T20:25:03.602Z,6.19
2022-11-26T20:27:34.424Z,6.20
2022-11-26T20:30:05.049Z,6.24
2022-11-26T20:32:34.943Z,6.22
2022-11-26T20:35:06.087Z,6.11
2022-11-26T20:37:35.212Z,6.28
2022-11-26T20:40:03.950Z,6.24
2022-11-26T20:42:33.943Z,6.31
2022-11-26T20:45:02.336Z,6.20
2022-11-26T20:47:30.874Z,6.24
2022-11-26T20:50:00.771Z,6.20
2022-11-26T20:52:29.747Z,6.06
2022-11-26T20:54:59.276Z,6.19
2022-11-26T20:57:27.760Z,6.24
2022-11-26T20:59:56.290Z,6.19
2022-11-26T21:02:27.990Z,6.22
2022-11-26T21:04:58.096Z,6.03
2022-11-26T21:07:30.053Z,6.11
2022-11-26T21:09:59.152Z,6.12
2022-11-26T21:12:29.229Z,6.14
2022-11-26T21:14:59.002Z,6.17
2022-11-26T21:17:28.151Z,6.11
2022-11-26T21:19:58.682Z,6.38
2022-11-26T21:22:29.416Z,6.36
2022-11-26T21:24:59.151Z,6.27
2022-11-26T21:27:30.052Z,6.36
2022-11-26T21:29:59.950Z,6.39
2022-11-26T21:32:28.507Z,6.30
2022-11-26T21:34:57.572Z,6.27
2022-11-26T21:37:29.274Z,6.38
2022-11-26T21:39:58.999Z,6.16
2022-11-26T21:42:27.338Z,6.31
2022-11-26T21:44:55.753Z,6.28
2022-11-26T21:47:24.579Z,6.32
2022-11-26T21:49:55.121Z,6.26
2022-11-26T21:52:23.599Z,6.34
2022-11-26T21:54:53.783Z,6.29
2022-11-26T21:57:23.596Z,6.34
2022-11-26T21:59:52.118Z,6.35
2022-11-26T22:02:20.684Z,6.27
2022-11-26T22:04:49.209Z,6.21
2022-11-26T22:07:20.719Z,6.38
2022-11-26T22:09:50.627Z,6.45
2022-11-26T22:12:20.791Z,6.38
2022-11-26T22:14:49.249Z,6.37
2022-11-26T22:17:17.679Z,6.31
2022-11-26T22:19:46.130Z,6.12
2022-11-26T22:22:14.936Z,6.19
2022-11-26T22:24:43.105Z,6.17
2022-11-26T22:27:12.485Z,6.16
2022-11-26T22:29:42.580Z,6.32
2022-11-26T22:32:11.467Z,6.21
2022-11-26T22:34:39.883Z,6.07
2022-11-26T22:37:08.110Z,6.19
2022-11-26T22:39:36.705Z,6.20
2022-11-26T22:42:05.636Z,6.11
2022-11-26T22:44:34.231Z,6.19
2022-11-26T22:47:03.801Z,6.29
2022-11-26T22:49:36.134Z,6.26
2022-11-26T22:52:04.394Z,6.17
2022-11-26T22:54:32.948Z,6.26
2022-11-26T22:57:01.092Z,6.26
2022-11-26T22:59:29.734Z,6.17
2022-11-26T23:01:58.192Z,6.25
2022-11-26T23:04:32.560Z,6.46
2022-11-26T23:07:01.124Z,6.41
2022-11-26T23:09:33.084Z,6.45
2022-11-26T23:12:07.299Z,6.34
2022-11-26T23:14:37.640Z,6.29
2022-11-26T23:17:07.238Z,6.31
2022-11-26T23:19:37.546Z,6.24
2022-11-26T23:22:06.173Z,6.21
2022-11-26T23:24:35.222Z,6.27
2022-11-26T23:27:03.881Z,6.28
2022-11-26T23:29:32.396Z,6.34
2022-11-26T23:32:00.805Z,6.22
2022-11-26T23:34:30.691Z,6.28
2022-11-26T23:37:00.943Z,6.25
2022-11-26T23:39:29.318Z,6.21
2022-11-26T23:41:57.647Z,6.29
2022-11-26T23:44:27.640Z,6.17
2022-11-26T23:46:56.085Z,6.24
2022-11-26T23:49:24.224Z,6.25
2022-11-26T23:51:52.632Z,6.36
2022-11-26T23:54:22.698Z,6.37
2022-11-26T23:56:51.489Z,6.20
2022-11-26T23:59:25.137Z,6.39
